sensor_id;sensor_type;location;lat;lon;timestamp;pressure;altitude;pressure_sealevel;temperature;humidity
11810;BME280;5962;41.566;23.734;2023-12-28T00:00:38;96562.22;;;2.04;100.00
11810;BME280;5962;41.566;23.734;2023-12-28T00:03:06;96570.53;;;2.08;100.00
11810;BME280;5962;41.566;23.734;2023-12-28T00:05:35;96579.53;;;2.13;100.00
11810;BME280;5962;41.566;23.734;2023-12-28T00:08:03;96581.69;;;2.18;100.00
11810;BME280;5962;41.566;23.734;2023-12-28T00:10:32;96584.94;;;2.20;100.00
11810;BME280;5962;41.566;23.734;2023-12-28T00:13:00;96591.81;;;2.13;100.00
11810;BME280;5962;41.566;23.734;2023-12-28T00:15:28;96596.00;;;2.06;100.00
11810;BME280;5962;41.566;23.734;2023-12-28T00:17:58;96589.63;;;1.92;100.00
11810;BME280;5962;41.566;23.734;2023-12-28T00:20:26;96594.97;;;1.83;100.00
11810;BME280;5962;41.566;23.734;2023-12-28T00:22:54;96592.97;;;1.77;100.00
11810;BME280;5962;41.566;23.734;2023-12-28T00:25:24;96604.19;;;1.70;100.00
11810;BME280;5962;41.566;23.734;2023-12-28T00:27:53;96606.47;;;1.65;100.00
11810;BME280;5962;41.566;23.734;2023-12-28T00:30:21;96608.03;;;1.58;100.00
11810;BME280;5962;41.566;23.734;2023-12-28T00:32:50;96608.22;;;1.56;100.00
11810;BME280;5962;41.566;23.734;2023-12-28T00:35:19;96616.34;;;1.53;100.00
11810;BME280;5962;41.566;23.734;2023-12-28T00:37:48;96616.50;;;1.52;100.00
11810;BME280;5962;41.566;23.734;2023-12-28T00:40:16;96627.09;;;1.50;100.00
11810;BME280;5962;41.566;23.734;2023-12-28T00:42:45;96624.66;;;1.49;100.00
11810;BME280;5962;41.566;23.734;2023-12-28T00:45:13;96618.78;;;1.55;100.00
11810;BME280;5962;41.566;23.734;2023-12-28T00:47:41;96621.72;;;1.52;100.00
11810;BME280;5962;41.566;23.734;2023-12-28T00:50:10;96622.19;;;1.47;100.00
11810;BME280;5962;41.566;23.734;2023-12-28T00:52:43;96627.56;;;1.46;100.00
11810;BME280;5962;41.566;23.734;2023-12-28T00:55:11;96629.50;;;1.44;100.00
11810;BME280;5962;41.566;23.734;2023-12-28T00:57:39;96637.34;;;1.44;100.00
11810;BME280;5962;41.566;23.734;2023-12-28T01:00:08;96636.34;;;1.45;100.00
11810;BME280;5962;41.566;23.734;2023-12-28T01:02:37;96636.53;;;1.43;100.00
11810;BME280;5962;41.566;23.734;2023-12-28T01:05:05;96646.13;;;1.43;100.00
11810;BME280;5962;41.566;23.734;2023-12-28T01:07:34;96645.16;;;1.44;100.00
11810;BME280;5962;41.566;23.734;2023-12-28T01:10:04;96646.66;;;1.46;100.00
11810;BME280;5962;41.566;23.734;2023-12-28T01:12:33;96645.03;;;1.45;100.00
11810;BME280;5962;41.566;23.734;2023-12-28T01:15:01;96648.63;;;1.44;100.00
11810;BME280;5962;41.566;23.734;2023-12-28T01:17:29;96644.19;;;1.45;100.00
11810;BME280;5962;41.566;23.734;2023-12-28T01:19:58;96650.25;;;1.45;100.00
11810;BME280;5962;41.566;23.734;2023-12-28T01:22:26;96654.50;;;1.46;100.00
11810;BME280;5962;41.566;23.734;2023-12-28T01:24:54;96653.00;;;1.44;100.00
11810;BME280;5962;41.566;23.734;2023-12-28T01:27:24;96648.34;;;1.55;100.00
11810;BME280;5962;41.566;23.734;2023-12-28T01:29:52;96648.66;;;1.52;100.00
11810;BME280;5962;41.566;23.734;2023-12-28T01:32:20;96645.22;;;1.52;100.00
11810;BME280;5962;41.566;23.734;2023-12-28T01:34:48;96639.81;;;1.45;100.00
11810;BME280;5962;41.566;23.734;2023-12-28T01:37:17;96642.56;;;1.44;100.00
11810;BME280;5962;41.566;23.734;2023-12-28T01:39:45;96635.03;;;1.41;100.00
11810;BME280;5962;41.566;23.734;2023-12-28T01:42:13;96631.91;;;1.37;100.00
11810;BME280;5962;41.566;23.734;2023-12-28T01:44:43;96629.47;;;1.36;100.00
11810;BME280;5962;41.566;23.734;2023-12-28T01:47:11;96622.75;;;1.33;100.00
11810;BME280;5962;41.566;23.734;2023-12-28T01:49:40;96631.88;;;1.29;100.00
11810;BME280;5962;41.566;23.734;2023-12-28T01:52:09;96636.41;;;1.27;100.00
11810;BME280;5962;41.566;23.734;2023-12-28T01:54:37;96633.81;;;1.27;100.00
11810;BME280;5962;41.566;23.734;2023-12-28T01:57:06;96636.41;;;1.27;100.00
11810;BME280;5962;41.566;23.734;2023-12-28T01:59:34;96634.09;;;1.24;100.00
11810;BME280;5962;41.566;23.734;2023-12-28T02:02:04;96630.47;;;1.17;100.00
11810;BME280;5962;41.566;23.734;2023-12-28T02:04:33;96641.25;;;1.22;100.00
11810;BME280;5962;41.566;23.734;2023-12-28T02:07:01;96642.69;;;1.17;100.00
11810;BME280;5962;41.566;23.734;2023-12-28T02:09:29;96639.78;;;1.20;100.00
11810;BME280;5962;41.566;23.734;2023-12-28T02:11:58;96646.44;;;1.14;100.00
11810;BME280;5962;41.566;23.734;2023-12-28T02:14:26;96642.00;;;0.90;100.00
11810;BME280;5962;41.566;23.734;2023-12-28T02:17:00;96646.31;;;0.81;100.00
11810;BME280;5962;41.566;23.734;2023-12-28T02:19:41;96652.94;;;0.76;100.00
11810;BME280;5962;41.566;23.734;2023-12-28T02:22:13;96644.91;;;0.69;100.00
11810;BME280;5962;41.566;23.734;2023-12-28T02:25:06;96640.13;;;0.65;100.00
11810;BME280;5962;41.566;23.734;2023-12-28T02:27:36;96631.94;;;0.60;100.00
11810;BME280;5962;41.566;23.734;2023-12-28T02:30:06;96629.63;;;0.57;100.00
11810;BME280;5962;41.566;23.734;2023-12-28T02:32:52;96636.34;;;0.59;100.00
11810;BME280;5962;41.566;23.734;2023-12-28T02:35:24;96636.56;;;0.66;100.00
11810;BME280;5962;41.566;23.734;2023-12-28T02:37:56;96631.34;;;0.66;100.00
11810;BME280;5962;41.566;23.734;2023-12-28T02:40:28;96635.28;;;0.70;100.00
11810;BME280;5962;41.566;23.734;2023-12-28T02:42:57;96638.56;;;0.72;100.00
11810;BME280;5962;41.566;23.734;2023-12-28T02:45:25;96638.44;;;0.73;100.00
11810;BME280;5962;41.566;23.734;2023-12-28T02:47:54;96625.22;;;0.75;100.00
11810;BME280;5962;41.566;23.734;2023-12-28T02:50:22;96631.78;;;0.79;100.00
11810;BME280;5962;41.566;23.734;2023-12-28T02:52:50;96631.19;;;0.85;100.00
11810;BME280;5962;41.566;23.734;2023-12-28T02:55:18;96632.81;;;0.86;100.00
11810;BME280;5962;41.566;23.734;2023-12-28T02:57:49;96600.19;;;0.64;100.00
11810;BME280;5962;41.566;23.734;2023-12-28T03:00:18;96631.78;;;0.79;100.00
11810;BME280;5962;41.566;23.734;2023-12-28T03:02:46;96632.38;;;0.73;100.00
11810;BME280;5962;41.566;23.734;2023-12-28T03:05:15;96631.41;;;0.74;100.00
11810;BME280;5962;41.566;23.734;2023-12-28T03:07:43;96629.38;;;0.68;100.00
11810;BME280;5962;41.566;23.734;2023-12-28T03:10:12;96622.00;;;0.63;100.00
11810;BME280;5962;41.566;23.734;2023-12-28T03:12:41;96625.75;;;0.61;100.00
11810;BME280;5962;41.566;23.734;2023-12-28T03:15:11;96630.28;;;0.59;100.00
11810;BME280;5962;41.566;23.734;2023-12-28T03:17:39;96634.03;;;0.56;100.00
11810;BME280;5962;41.566;23.734;2023-12-28T03:20:09;96631.41;;;0.56;100.00
11810;BME280;5962;41.566;23.734;2023-12-28T03:22:38;96628.94;;;0.55;100.00
11810;BME280;5962;41.566;23.734;2023-12-28T03:25:07;96625.06;;;0.59;100.00
11810;BME280;5962;41.566;23.734;2023-12-28T03:27:35;96624.41;;;0.57;100.00
11810;BME280;5962;41.566;23.734;2023-12-28T03:30:04;96627.28;;;0.54;100.00
11810;BME280;5962;41.566;23.734;2023-12-28T03:32:34;96624.03;;;0.52;100.00
11810;BME280;5962;41.566;23.734;2023-12-28T03:35:03;96623.06;;;0.53;100.00
11810;BME280;5962;41.566;23.734;2023-12-28T03:37:34;96622.03;;;0.46;100.00
11810;BME280;5962;41.566;23.734;2023-12-28T03:40:03;96629.38;;;0.50;100.00
11810;BME280;5962;41.566;23.734;2023-12-28T03:42:31;96634.88;;;0.47;100.00
11810;BME280;5962;41.566;23.734;2023-12-28T03:45:00;96642.88;;;0.46;100.00
11810;BME280;5962;41.566;23.734;2023-12-28T03:47:28;96643.72;;;0.46;100.00
11810;BME280;5962;41.566;23.734;2023-12-28T03:49:58;96651.66;;;0.45;100.00
11810;BME280;5962;41.566;23.734;2023-12-28T03:52:26;96651.53;;;0.46;100.00
11810;BME280;5962;41.566;23.734;2023-12-28T03:54:57;96651.06;;;0.51;100.00
11810;BME280;5962;41.566;23.734;2023-12-28T03:57:25;96652.09;;;0.58;100.00
11810;BME280;5962;41.566;23.734;2023-12-28T03:59:54;96652.78;;;0.60;100.00
11810;BME280;5962;41.566;23.734;2023-12-28T04:02:23;96644.44;;;0.56;100.00
11810;BME280;5962;41.566;23.734;2023-12-28T04:04:54;96646.53;;;0.53;100.00
11810;BME280;5962;41.566;23.734;2023-12-28T04:07:26;96642.28;;;0.52;100.00
11810;BME280;5962;41.566;23.734;2023-12-28T04:09:54;96644.91;;;0.52;100.00
11810;BME280;5962;41.566;23.734;2023-12-28T04:12:23;96638.84;;;0.51;100.00
11810;BME280;5962;41.566;23.734;2023-12-28T04:14:51;96639.53;;;0.53;100.00
11810;BME280;5962;41.566;23.734;2023-12-28T04:17:19;96646.09;;;0.57;100.00
11810;BME280;5962;41.566;23.734;2023-12-28T04:19:47;96644.91;;;0.52;100.00
11810;BME280;5962;41.566;23.734;2023-12-28T04:22:16;96651.66;;;0.62;100.00
11810;BME280;5962;41.566;23.734;2023-12-28T04:24:45;96645.19;;;0.66;100.00
11810;BME280;5962;41.566;23.734;2023-12-28T04:27:13;96645.25;;;0.57;100.00
11810;BME280;5962;41.566;23.734;2023-12-28T04:29:42;96648.69;;;0.40;100.00
11810;BME280;5962;41.566;23.734;2023-12-28T04:32:10;96656.13;;;0.35;100.00
11810;BME280;5962;41.566;23.734;2023-12-28T04:34:38;96650.78;;;0.27;100.00
11810;BME280;5962;41.566;23.734;2023-12-28T04:37:07;96651.41;;;0.21;100.00
11810;BME280;5962;41.566;23.734;2023-12-28T04:39:35;96655.16;;;0.09;100.00
11810;BME280;5962;41.566;23.734;2023-12-28T04:42:05;96656.41;;;0.05;100.00
11810;BME280;5962;41.566;23.734;2023-12-28T04:44:37;96656.84;;;0.00;100.00
11810;BME280;5962;41.566;23.734;2023-12-28T04:47:06;96651.66;;;0.00;100.00
11810;BME280;5962;41.566;23.734;2023-12-28T04:49:34;96655.22;;;-0.01;100.00
11810;BME280;5962;41.566;23.734;2023-12-28T04:52:03;96664.38;;;0.03;100.00
11810;BME280;5962;41.566;23.734;2023-12-28T04:54:31;96657.00;;;-0.01;100.00
11810;BME280;5962;41.566;23.734;2023-12-28T04:57:00;96664.38;;;0.03;100.00
11810;BME280;5962;41.566;23.734;2023-12-28T04:59:30;96664.94;;;-0.03;100.00
11810;BME280;5962;41.566;23.734;2023-12-28T05:01:58;96667.28;;;0.00;100.00
11810;BME280;5962;41.566;23.734;2023-12-28T05:04:26;96668.75;;;0.03;100.00
11810;BME280;5962;41.566;23.734;2023-12-28T05:06:54;96663.56;;;0.03;100.00
11810;BME280;5962;41.566;23.734;2023-12-28T05:09:23;96671.38;;;0.03;100.00
11810;BME280;5962;41.566;23.734;2023-12-28T05:11:51;96671.00;;;-0.02;100.00
11810;BME280;5962;41.566;23.734;2023-12-28T05:14:19;96671.41;;;-0.06;100.00
11810;BME280;5962;41.566;23.734;2023-12-28T05:16:49;96664.66;;;0.00;100.00
11810;BME280;5962;41.566;23.734;2023-12-28T05:19:17;96672.19;;;0.03;100.00
11810;BME280;5962;41.566;23.734;2023-12-28T05:21:45;96668.75;;;0.03;100.00
11810;BME280;5962;41.566;23.734;2023-12-28T05:24:14;96668.47;;;0.06;100.00
11810;BME280;5962;41.566;23.734;2023-12-28T05:26:42;96672.97;;;0.13;100.00
11810;BME280;5962;41.566;23.734;2023-12-28T05:29:10;96662.94;;;0.18;100.00
11810;BME280;5962;41.566;23.734;2023-12-28T05:31:39;96664.03;;;0.16;100.00
11810;BME280;5962;41.566;23.734;2023-12-28T05:34:08;96675.13;;;0.18;100.00
11810;BME280;5962;41.566;23.734;2023-12-28T05:36:37;96674.69;;;0.22;100.00
11810;BME280;5962;41.566;23.734;2023-12-28T05:39:07;96676.63;;;0.20;100.00
11810;BME280;5962;41.566;23.734;2023-12-28T05:41:36;96677.28;;;0.22;100.00
11810;BME280;5962;41.566;23.734;2023-12-28T05:44:04;96678.84;;;0.15;100.00
11810;BME280;5962;41.566;23.734;2023-12-28T05:46:33;96686.78;;;0.14;100.00
11810;BME280;5962;41.566;23.734;2023-12-28T05:49:01;96683.31;;;0.05;100.00
11810;BME280;5962;41.566;23.734;2023-12-28T05:51:37;96690.56;;;0.02;100.00
11810;BME280;5962;41.566;23.734;2023-12-28T05:54:06;96691.69;;;-0.01;100.00
11810;BME280;5962;41.566;23.734;2023-12-28T05:56:35;96690.31;;;-0.04;100.00
11810;BME280;5962;41.566;23.734;2023-12-28T05:59:03;96693.06;;;-0.06;100.00
11810;BME280;5962;41.566;23.734;2023-12-28T06:01:31;96693.50;;;-0.10;100.00
11810;BME280;5962;41.566;23.734;2023-12-28T06:04:00;96695.69;;;-0.06;100.00
11810;BME280;5962;41.566;23.734;2023-12-28T06:06:28;96687.88;;;-0.06;100.00
11810;BME280;5962;41.566;23.734;2023-12-28T06:08:58;96684.03;;;-0.02;100.00
11810;BME280;5962;41.566;23.734;2023-12-28T06:11:26;96691.53;;;0.01;100.00
11810;BME280;5962;41.566;23.734;2023-12-28T06:13:54;96684.69;;;0.00;100.00
11810;BME280;5962;41.566;23.734;2023-12-28T06:16:22;96690.28;;;0.05;100.00
11810;BME280;5962;41.566;23.734;2023-12-28T06:18:52;96693.41;;;0.08;100.00
11810;BME280;5962;41.566;23.734;2023-12-28T06:21:20;96685.03;;;0.14;100.00
11810;BME280;5962;41.566;23.734;2023-12-28T06:23:49;96692.94;;;0.22;100.00
11810;BME280;5962;41.566;23.734;2023-12-28T06:26:18;96691.69;;;0.26;100.00
11810;BME280;5962;41.566;23.734;2023-12-28T06:28:47;96690.44;;;0.30;100.00
11810;BME280;5962;41.566;23.734;2023-12-28T06:31:16;96696.84;;;0.36;100.00
11810;BME280;5962;41.566;23.734;2023-12-28T06:33:44;96694.09;;;0.37;100.00
11810;BME280;5962;41.566;23.734;2023-12-28T06:36:12;96697.09;;;0.42;100.00
11810;BME280;5962;41.566;23.734;2023-12-28T06:38:40;96694.47;;;0.42;100.00
11810;BME280;5962;41.566;23.734;2023-12-28T06:41:12;96694.03;;;0.47;100.00
11810;BME280;5962;41.566;23.734;2023-12-28T06:43:42;96696.19;;;0.51;100.00
11810;BME280;5962;41.566;23.734;2023-12-28T06:46:10;96694.13;;;0.55;100.00
11810;BME280;5962;41.566;23.734;2023-12-28T06:48:38;96696.81;;;0.63;100.00
11810;BME280;5962;41.566;23.734;2023-12-28T06:51:07;96700.78;;;0.67;100.00
11810;BME280;5962;41.566;23.734;2023-12-28T06:53:35;96694.81;;;0.74;100.00
11810;BME280;5962;41.566;23.734;2023-12-28T06:56:04;96697.63;;;0.81;100.00
11810;BME280;5962;41.566;23.734;2023-12-28T06:58:32;96691.84;;;0.87;100.00
11810;BME280;5962;41.566;23.734;2023-12-28T07:01:04;96692.91;;;0.93;100.00
11810;BME280;5962;41.566;23.734;2023-12-28T07:03:32;96689.75;;;1.07;100.00
11810;BME280;5962;41.566;23.734;2023-12-28T07:06:01;96664.44;;;1.00;100.00
11810;BME280;5962;41.566;23.734;2023-12-28T07:08:30;96690.50;;;1.17;100.00
11810;BME280;5962;41.566;23.734;2023-12-28T07:10:58;96690.72;;;1.24;100.00
11810;BME280;5962;41.566;23.734;2023-12-28T07:13:27;96693.09;;;1.17;100.00
11810;BME280;5962;41.566;23.734;2023-12-28T07:15:56;96695.84;;;1.16;100.00
11810;BME280;5962;41.566;23.734;2023-12-28T07:18:26;96697.72;;;1.23;100.00
11810;BME280;5962;41.566;23.734;2023-12-28T07:20:54;96698.84;;;1.21;100.00
11810;BME280;5962;41.566;23.734;2023-12-28T07:23:23;96707.56;;;1.12;100.00
11810;BME280;5962;41.566;23.734;2023-12-28T07:25:51;96706.84;;;1.19;100.00
11810;BME280;5962;41.566;23.734;2023-12-28T07:28:19;96710.75;;;1.23;100.00
11810;BME280;5962;41.566;23.734;2023-12-28T07:30:48;96710.25;;;1.20;100.00
11810;BME280;5962;41.566;23.734;2023-12-28T07:33:16;96712.13;;;1.10;100.00
11810;BME280;5962;41.566;23.734;2023-12-28T07:35:46;96703.97;;;0.95;100.00
11810;BME280;5962;41.566;23.734;2023-12-28T07:38:15;96701.81;;;0.91;100.00
11810;BME280;5962;41.566;23.734;2023-12-28T07:40:43;96705.03;;;0.85;100.00
11810;BME280;5962;41.566;23.734;2023-12-28T07:43:11;96710.25;;;0.85;100.00
11810;BME280;5962;41.566;23.734;2023-12-28T07:45:39;96712.25;;;0.91;100.00
11810;BME280;5962;41.566;23.734;2023-12-28T07:48:08;96722.25;;;0.95;100.00
11810;BME280;5962;41.566;23.734;2023-12-28T07:50:37;96727.56;;;0.86;100.00
11810;BME280;5962;41.566;23.734;2023-12-28T07:53:06;96727.09;;;0.91;100.00
11810;BME280;5962;41.566;23.734;2023-12-28T07:55:35;96730.22;;;0.94;100.00
11810;BME280;5962;41.566;23.734;2023-12-28T07:58:03;96728.34;;;1.04;100.00
11810;BME280;5962;41.566;23.734;2023-12-28T08:00:32;96724.19;;;1.11;100.00
11810;BME280;5962;41.566;23.734;2023-12-28T08:03:00;96726.06;;;1.18;100.00
11810;BME280;5962;41.566;23.734;2023-12-28T08:05:28;96734.47;;;1.30;100.00
11810;BME280;5962;41.566;23.734;2023-12-28T08:07:56;96730.13;;;1.38;100.00
11810;BME280;5962;41.566;23.734;2023-12-28T08:10:26;96739.22;;;1.52;100.00
11810;BME280;5962;41.566;23.734;2023-12-28T08:12:55;96731.06;;;1.55;100.00
11810;BME280;5962;41.566;23.734;2023-12-28T08:15:23;96735.25;;;1.65;100.00
11810;BME280;5962;41.566;23.734;2023-12-28T08:17:51;96735.31;;;1.73;100.00
11810;BME280;5962;41.566;23.734;2023-12-28T08:20:20;96734.00;;;1.77;100.00
11810;BME280;5962;41.566;23.734;2023-12-28T08:22:48;96738.16;;;1.87;100.00
11810;BME280;5962;41.566;23.734;2023-12-28T08:25:18;96732.00;;;1.96;100.00
11810;BME280;5962;41.566;23.734;2023-12-28T08:27:48;96732.75;;;2.06;100.00
11810;BME280;5962;41.566;23.734;2023-12-28T08:30:15;96729.66;;;2.11;100.00
11810;BME280;5962;41.566;23.734;2023-12-28T08:32:43;96738.88;;;2.23;100.00
11810;BME280;5962;41.566;23.734;2023-12-28T08:35:12;96732.88;;;2.30;100.00
11810;BME280;5962;41.566;23.734;2023-12-28T08:37:40;96730.63;;;2.43;100.00
11810;BME280;5962;41.566;23.734;2023-12-28T08:40:10;96723.78;;;2.50;100.00
11810;BME280;5962;41.566;23.734;2023-12-28T08:42:39;96719.41;;;2.59;100.00
11810;BME280;5962;41.566;23.734;2023-12-28T08:45:09;96718.78;;;2.65;100.00
11810;BME280;5962;41.566;23.734;2023-12-28T08:47:37;96717.66;;;2.75;100.00
11810;BME280;5962;41.566;23.734;2023-12-28T08:50:06;96714.91;;;2.84;100.00
11810;BME280;5962;41.566;23.734;2023-12-28T08:52:33;96707.41;;;2.97;100.00
11810;BME280;5962;41.566;23.734;2023-12-28T08:55:04;96683.34;;;2.94;100.00
11810;BME280;5962;41.566;23.734;2023-12-28T08:57:33;96699.59;;;3.21;100.00
11810;BME280;5962;41.566;23.734;2023-12-28T09:00:01;96699.56;;;3.37;100.00
11810;BME280;5962;41.566;23.734;2023-12-28T09:02:33;96694.34;;;3.45;100.00
11810;BME280;5962;41.566;23.734;2023-12-28T09:05:01;96696.63;;;3.64;100.00
11810;BME280;5962;41.566;23.734;2023-12-28T09:07:30;96687.44;;;3.76;100.00
11810;BME280;5962;41.566;23.734;2023-12-28T09:09:58;96687.44;;;3.84;100.00
11810;BME280;5962;41.566;23.734;2023-12-28T09:12:26;96681.50;;;3.90;100.00
11810;BME280;5962;41.566;23.734;2023-12-28T09:14:55;96672.31;;;4.02;100.00
11810;BME280;5962;41.566;23.734;2023-12-28T09:17:23;96667.38;;;4.07;100.00
11810;BME280;5962;41.566;23.734;2023-12-28T09:19:53;96670.47;;;4.18;100.00
11810;BME280;5962;41.566;23.734;2023-12-28T09:22:21;96658.63;;;4.22;100.00
11810;BME280;5962;41.566;23.734;2023-12-28T09:24:51;96655.84;;;4.24;100.00
11810;BME280;5962;41.566;23.734;2023-12-28T09:27:19;96654.53;;;4.28;100.00
11810;BME280;5962;41.566;23.734;2023-12-28T09:29:48;96646.44;;;4.37;100.00
11810;BME280;5962;41.566;23.734;2023-12-28T09:32:16;96644.25;;;4.49;100.00
11810;BME280;5962;41.566;23.734;2023-12-28T09:34:44;96634.72;;;4.56;100.00
11810;BME280;5962;41.566;23.734;2023-12-28T09:37:14;96628.59;;;4.63;100.00
11810;BME280;5962;41.566;23.734;2023-12-28T09:39:42;96623.31;;;4.71;100.00
11810;BME280;5962;41.566;23.734;2023-12-28T09:42:17;96621.50;;;4.71;100.00
11810;BME280;5962;41.566;23.734;2023-12-28T09:44:46;96617.59;;;4.90;100.00
11810;BME280;5962;41.566;23.734;2023-12-28T09:47:14;96607.19;;;4.96;100.00
11810;BME280;5962;41.566;23.734;2023-12-28T09:49:44;96603.09;;;5.02;100.00
11810;BME280;5962;41.566;23.734;2023-12-28T09:52:15;96589.47;;;4.98;100.00
11810;BME280;5962;41.566;23.734;2023-12-28T09:54:43;96596.00;;;5.02;100.00
11810;BME280;5962;41.566;23.734;2023-12-28T09:57:11;96586.91;;;5.13;100.00
11810;BME280;5962;41.566;23.734;2023-12-28T09:59:40;96589.09;;;5.24;100.00
11810;BME280;5962;41.566;23.734;2023-12-28T10:02:10;96586.75;;;5.29;100.00
11810;BME280;5962;41.566;23.734;2023-12-28T10:04:39;96584.75;;;5.31;100.00
11810;BME280;5962;41.566;23.734;2023-12-28T10:07:07;96573.44;;;5.30;100.00
11810;BME280;5962;41.566;23.734;2023-12-28T10:09:37;96569.63;;;5.33;100.00
11810;BME280;5962;41.566;23.734;2023-12-28T10:12:06;96568.47;;;5.35;100.00
11810;BME280;5962;41.566;23.734;2023-12-28T10:14:35;96557.34;;;5.48;100.00
11810;BME280;5962;41.566;23.734;2023-12-28T10:17:04;96554.16;;;5.52;100.00
11810;BME280;5962;41.566;23.734;2023-12-28T10:19:32;96546.38;;;5.73;100.00
11810;BME280;5962;41.566;23.734;2023-12-28T10:22:00;96541.56;;;5.76;100.00
11810;BME280;5962;41.566;23.734;2023-12-28T10:24:29;96540.16;;;5.88;100.00
11810;BME280;5962;41.566;23.734;2023-12-28T10:26:59;96528.28;;;5.92;100.00
11810;BME280;5962;41.566;23.734;2023-12-28T10:29:27;96522.81;;;5.94;100.00
11810;BME280;5962;41.566;23.734;2023-12-28T10:31:56;96524.38;;;6.03;100.00
11810;BME280;5962;41.566;23.734;2023-12-28T10:34:24;96514.44;;;6.05;100.00
11810;BME280;5962;41.566;23.734;2023-12-28T10:36:53;96513.09;;;6.09;100.00
11810;BME280;5962;41.566;23.734;2023-12-28T10:39:24;96510.72;;;6.14;100.00
11810;BME280;5962;41.566;23.734;2023-12-28T10:41:55;96500.53;;;6.25;100.00
11810;BME280;5962;41.566;23.734;2023-12-28T10:44:27;96491.69;;;6.33;100.00
11810;BME280;5962;41.566;23.734;2023-12-28T10:47:01;96492.78;;;6.38;100.00
11810;BME280;5962;41.566;23.734;2023-12-28T10:49:30;96481.00;;;6.34;100.00
11810;BME280;5962;41.566;23.734;2023-12-28T10:52:01;96484.16;;;6.44;100.00
11810;BME280;5962;41.566;23.734;2023-12-28T10:54:39;96472.03;;;6.50;100.00
11810;BME280;5962;41.566;23.734;2023-12-28T10:57:16;96473.44;;;6.66;100.00
11810;BME280;5962;41.566;23.734;2023-12-28T11:00:00;96461.81;;;6.82;100.00
11810;BME280;5962;41.566;23.734;2023-12-28T11:02:38;96462.47;;;6.90;100.00
11810;BME280;5962;41.566;23.734;2023-12-28T11:05:08;96457.31;;;7.03;100.00
11810;BME280;5962;41.566;23.734;2023-12-28T11:07:37;96456.75;;;7.08;100.00
11810;BME280;5962;41.566;23.734;2023-12-28T11:10:07;96434.84;;;7.07;100.00
11810;BME280;5962;41.566;23.734;2023-12-28T11:12:37;96444.53;;;7.28;100.00
11810;BME280;5962;41.566;23.734;2023-12-28T11:15:09;96442.56;;;7.36;100.00
11810;BME280;5962;41.566;23.734;2023-12-28T11:17:39;96435.22;;;7.38;100.00
11810;BME280;5962;41.566;23.734;2023-12-28T11:20:09;96437.06;;;7.38;100.00
11810;BME280;5962;41.566;23.734;2023-12-28T11:22:38;96430.56;;;7.34;100.00
11810;BME280;5962;41.566;23.734;2023-12-28T11:25:14;96424.50;;;7.40;100.00
11810;BME280;5962;41.566;23.734;2023-12-28T11:27:43;96426.94;;;7.41;100.00
11810;BME280;5962;41.566;23.734;2023-12-28T11:30:13;96394.84;;;7.25;100.00
11810;BME280;5962;41.566;23.734;2023-12-28T11:32:42;96394.47;;;7.34;100.00
11810;BME280;5962;41.566;23.734;2023-12-28T11:35:11;96409.97;;;7.50;100.00
11810;BME280;5962;41.566;23.734;2023-12-28T11:37:43;96412.19;;;7.53;100.00
11810;BME280;5962;41.566;23.734;2023-12-28T11:40:16;96400.03;;;7.52;100.00
11810;BME280;5962;41.566;23.734;2023-12-28T11:42:53;96398.25;;;7.59;100.00
11810;BME280;5962;41.566;23.734;2023-12-28T11:45:23;96394.38;;;7.61;100.00
11810;BME280;5962;41.566;23.734;2023-12-28T11:48:01;96397.88;;;7.68;100.00
11810;BME280;5962;41.566;23.734;2023-12-28T11:50:29;96397.31;;;7.79;100.00
11810;BME280;5962;41.566;23.734;2023-12-28T11:52:58;96395.91;;;7.83;100.00
11810;BME280;5962;41.566;23.734;2023-12-28T11:55:26;96389.66;;;7.97;100.00
11810;BME280;5962;41.566;23.734;2023-12-28T11:57:55;96391.56;;;8.23;99.90
11810;BME280;5962;41.566;23.734;2023-12-28T12:00:25;96387.13;;;8.43;98.61
11810;BME280;5962;41.566;23.734;2023-12-28T12:02:53;96392.59;;;8.47;98.18
11810;BME280;5962;41.566;23.734;2023-12-28T12:05:22;96391.59;;;8.42;98.50
11810;BME280;5962;41.566;23.734;2023-12-28T12:07:51;96387.53;;;8.40;98.95
11810;BME280;5962;41.566;23.734;2023-12-28T12:10:19;96381.25;;;8.41;99.33
11810;BME280;5962;41.566;23.734;2023-12-28T12:12:51;96374.72;;;8.43;99.22
11810;BME280;5962;41.566;23.734;2023-12-28T12:15:20;96382.03;;;8.41;100.00
11810;BME280;5962;41.566;23.734;2023-12-28T12:17:50;96370.47;;;8.42;100.00
11810;BME280;5962;41.566;23.734;2023-12-28T12:20:19;96367.44;;;8.45;99.84
11810;BME280;5962;41.566;23.734;2023-12-28T12:22:48;96370.88;;;8.45;100.00
11810;BME280;5962;41.566;23.734;2023-12-28T12:25:17;96363.78;;;8.46;100.00
11810;BME280;5962;41.566;23.734;2023-12-28T12:27:46;96358.09;;;8.49;100.00
11810;BME280;5962;41.566;23.734;2023-12-28T12:30:15;96368.66;;;8.55;99.08
11810;BME280;5962;41.566;23.734;2023-12-28T12:32:43;96356.06;;;8.57;98.46
11810;BME280;5962;41.566;23.734;2023-12-28T12:35:13;96360.53;;;8.57;98.73
11810;BME280;5962;41.566;23.734;2023-12-28T12:37:42;96353.59;;;8.75;98.23
11810;BME280;5962;41.566;23.734;2023-12-28T12:40:11;96343.00;;;9.01;96.47
11810;BME280;5962;41.566;23.734;2023-12-28T12:42:42;96347.66;;;9.06;96.63
11810;BME280;5962;41.566;23.734;2023-12-28T12:45:11;96337.69;;;9.14;96.10
11810;BME280;5962;41.566;23.734;2023-12-28T12:47:39;96333.38;;;9.20;95.76
11810;BME280;5962;41.566;23.734;2023-12-28T12:50:09;96331.56;;;9.27;95.70
11810;BME280;5962;41.566;23.734;2023-12-28T12:52:39;96334.16;;;9.33;94.80
11810;BME280;5962;41.566;23.734;2023-12-28T12:55:10;96330.69;;;9.32;94.89
11810;BME280;5962;41.566;23.734;2023-12-28T12:57:39;96333.97;;;9.28;95.09
11810;BME280;5962;41.566;23.734;2023-12-28T13:00:10;96332.97;;;9.29;95.56
11810;BME280;5962;41.566;23.734;2023-12-28T13:02:38;96333.19;;;9.28;95.11
11810;BME280;5962;41.566;23.734;2023-12-28T13:05:07;96329.53;;;9.22;95.29
11810;BME280;5962;41.566;23.734;2023-12-28T13:07:35;96328.31;;;9.18;95.94
11810;BME280;5962;41.566;23.734;2023-12-28T13:10:06;96326.47;;;9.19;96.45